sensor_id;sensor_type;location;lat;lon;timestamp;temperature;humidity
24087;DHT22;22893;50.572;7.234;2023-04-06T05:57:33;22.30;43.40
24087;DHT22;22893;50.572;7.234;2023-04-06T06:00:01;22.20;43.50
24087;DHT22;22893;50.572;7.234;2023-04-06T06:02:33;22.30;43.60
24087;DHT22;22893;50.572;7.234;2023-04-06T06:05:01;22.30;43.60
24087;DHT22;22893;50.572;7.234;2023-04-06T06:07:28;22.30;43.70
24087;DHT22;22893;50.572;7.234;2023-04-06T06:09:59;22.40;43.80
24087;DHT22;22893;50.572;7.234;2023-04-06T06:12:27;22.30;44.10
24087;DHT22;22893;50.572;7.234;2023-04-06T06:14:55;22.30;44.00
24087;DHT22;22893;50.572;7.234;2023-04-06T06:17:22;22.40;44.20
24087;DHT22;22893;50.572;7.234;2023-04-06T06:19:50;22.40;44.10
24087;DHT22;22893;50.572;7.234;2023-04-06T06:22:18;22.40;44.10
24087;DHT22;22893;50.572;7.234;2023-04-06T06:24:45;22.40;44.40
24087;DHT22;22893;50.572;7.234;2023-04-06T06:27:13;22.40;44.40
24087;DHT22;22893;50.572;7.234;2023-04-06T06:29:41;22.40;44.40
24087;DHT22;22893;50.572;7.234;2023-04-06T06:32:08;22.40;44.60
24087;DHT22;22893;50.572;7.234;2023-04-06T06:34:36;22.50;44.80
24087;DHT22;22893;50.572;7.234;2023-04-06T06:37:04;22.50;44.70
24087;DHT22;22893;50.572;7.234;2023-04-06T06:39:32;22.50;44.80
24087;DHT22;22893;50.572;7.234;2023-04-06T06:41:59;22.40;44.70
24087;DHT22;22893;50.572;7.234;2023-04-06T06:44:28;22.50;44.90
24087;DHT22;22893;50.572;7.234;2023-04-06T06:46:55;22.50;44.90
24087;DHT22;22893;50.572;7.234;2023-04-06T06:49:23;22.50;45.00
24087;DHT22;22893;50.572;7.234;2023-04-06T06:51:51;22.50;45.00
24087;DHT22;22893;50.572;7.234;2023-04-06T06:54:18;22.50;44.90
24087;DHT22;22893;50.572;7.234;2023-04-06T06:56:46;22.50;44.70
24087;DHT22;22893;50.572;7.234;2023-04-06T06:59:14;22.50;44.50
24087;DHT22;22893;50.572;7.234;2023-04-06T07:01:42;22.50;44.60
24087;DHT22;22893;50.572;7.234;2023-04-06T07:04:10;22.50;44.40
24087;DHT22;22893;50.572;7.234;2023-04-06T07:06:38;22.50;44.50
24087;DHT22;22893;50.572;7.234;2023-04-06T07:09:05;22.50;44.50
24087;DHT22;22893;50.572;7.234;2023-04-06T07:11:33;22.50;44.30
24087;DHT22;22893;50.572;7.234;2023-04-06T07:14:01;22.50;44.50
24087;DHT22;22893;50.572;7.234;2023-04-06T07:16:28;22.50;44.40
24087;DHT22;22893;50.572;7.234;2023-04-06T07:18:56;22.50;44.50
24087;DHT22;22893;50.572;7.234;2023-04-06T07:21:24;22.50;44.70
24087;DHT22;22893;50.572;7.234;2023-04-06T07:23:51;22.50;44.50
24087;DHT22;22893;50.572;7.234;2023-04-06T07:26:19;22.50;44.60
24087;DHT22;22893;50.572;7.234;2023-04-06T07:28:47;22.50;44.70
24087;DHT22;22893;50.572;7.234;2023-04-06T07:31:15;22.50;44.90
24087;DHT22;22893;50.572;7.234;2023-04-06T07:33:42;22.50;44.80
24087;DHT22;22893;50.572;7.234;2023-04-06T07:36:10;22.50;44.90
24087;DHT22;22893;50.572;7.234;2023-04-06T07:38:37;22.50;45.00
24087;DHT22;22893;50.572;7.234;2023-04-06T07:41:05;22.50;45.20
24087;DHT22;22893;50.572;7.234;2023-04-06T07:43:33;22.60;45.10
24087;DHT22;22893;50.572;7.234;2023-04-06T07:46:00;22.50;45.30
24087;DHT22;22893;50.572;7.234;2023-04-06T07:48:28;22.50;45.70
24087;DHT22;22893;50.572;7.234;2023-04-06T07:51:04;22.50;45.60
24087;DHT22;22893;50.572;7.234;2023-04-06T07:53:33;22.50;45.80
24087;DHT22;22893;50.572;7.234;2023-04-06T07:56:00;22.50;45.80
24087;DHT22;22893;50.572;7.234;2023-04-06T07:58:28;22.60;46.00
24087;DHT22;22893;50.572;7.234;2023-04-06T08:00:56;22.50;46.10
24087;DHT22;22893;50.572;7.234;2023-04-06T08:03:24;22.50;46.10
24087;DHT22;22893;50.572;7.234;2023-04-06T08:05:55;22.60;46.10
24087;DHT22;22893;50.572;7.234;2023-04-06T08:08:22;22.50;46.10
24087;DHT22;22893;50.572;7.234;2023-04-06T08:10:50;22.60;46.10
24087;DHT22;22893;50.572;7.234;2023-04-06T08:13:18;22.50;46.00
24087;DHT22;22893;50.572;7.234;2023-04-06T08:15:46;22.60;46.00
24087;DHT22;22893;50.572;7.234;2023-04-06T08:18:13;22.50;46.00
24087;DHT22;22893;50.572;7.234;2023-04-06T08:20:41;22.60;46.10
24087;DHT22;22893;50.572;7.234;2023-04-06T08:23:09;22.60;46.20
24087;DHT22;22893;50.572;7.234;2023-04-06T08:25:37;22.50;46.20
24087;DHT22;22893;50.572;7.234;2023-04-06T08:28:05;22.60;46.40
24087;DHT22;22893;50.572;7.234;2023-04-06T08:30:33;22.60;46.30
24087;DHT22;22893;50.572;7.234;2023-04-06T08:33:00;22.50;46.30
24087;DHT22;22893;50.572;7.234;2023-04-06T08:35:28;22.60;46.40
24087;DHT22;22893;50.572;7.234;2023-04-06T08:37:57;22.60;46.40
24087;DHT22;22893;50.572;7.234;2023-04-06T08:40:25;22.60;46.20
24087;DHT22;22893;50.572;7.234;2023-04-06T08:42:55;22.50;46.20
24087;DHT22;22893;50.572;7.234;2023-04-06T08:45:23;22.50;46.20
24087;DHT22;22893;50.572;7.234;2023-04-06T08:47:51;22.50;45.80
24087;DHT22;22893;50.572;7.234;2023-04-06T08:50:19;22.50;45.90
24087;DHT22;22893;50.572;7.234;2023-04-06T08:52:49;22.60;45.90
24087;DHT22;22893;50.572;7.234;2023-04-06T08:55:17;22.50;45.90
24087;DHT22;22893;50.572;7.234;2023-04-06T08:57:45;22.50;45.70
24087;DHT22;22893;50.572;7.234;2023-04-06T09:00:14;22.60;45.70
24087;DHT22;22893;50.572;7.234;2023-04-06T09:02:44;22.50;45.70
24087;DHT22;22893;50.572;7.234;2023-04-06T09:05:12;22.50;45.70
24087;DHT22;22893;50.572;7.234;2023-04-06T09:07:40;22.50;45.70
24087;DHT22;22893;50.572;7.234;2023-04-06T09:10:08;22.50;45.80
24087;DHT22;22893;50.572;7.234;2023-04-06T09:12:36;22.50;45.70
24087;DHT22;22893;50.572;7.234;2023-04-06T09:15:04;22.50;45.80
24087;DHT22;22893;50.572;7.234;2023-04-06T09:17:32;22.60;45.70
24087;DHT22;22893;50.572;7.234;2023-04-06T09:20:01;22.60;45.90
24087;DHT22;22893;50.572;7.234;2023-04-06T09:22:36;22.60;45.90
24087;DHT22;22893;50.572;7.234;2023-04-06T09:25:05;22.60;45.90
24087;DHT22;22893;50.572;7.234;2023-04-06T09:27:34;22.60;45.90
24087;DHT22;22893;50.572;7.234;2023-04-06T09:30:10;22.60;46.00
24087;DHT22;22893;50.572;7.234;2023-04-06T09:35:34;22.60;46.00
24087;DHT22;22893;50.572;7.234;2023-04-06T09:38:10;22.60;46.00
24087;DHT22;22893;50.572;7.234;2023-04-06T09:40:32;22.60;46.00
24087;DHT22;22893;50.572;7.234;2023-04-06T09:43:00;22.60;46.00
24087;DHT22;22893;50.572;7.234;2023-04-06T09:45:29;22.60;45.90
24087;DHT22;22893;50.572;7.234;2023-04-06T09:47:58;22.60;46.00
24087;DHT22;22893;50.572;7.234;2023-04-06T09:50:27;22.60;46.10
24087;DHT22;22893;50.572;7.234;2023-04-06T09:52:56;22.60;46.10
24087;DHT22;22893;50.572;7.234;2023-04-06T09:55:34;22.60;46.00
24087;DHT22;22893;50.572;7.234;2023-04-06T09:58:06;22.60;46.10
24087;DHT22;22893;50.572;7.234;2023-04-06T10:00:56;22.60;46.00
24087;DHT22;22893;50.572;7.234;2023-04-06T10:03:29;22.60;46.10
24087;DHT22;22893;50.572;7.234;2023-04-06T10:05:57;22.60;46.10
24087;DHT22;22893;50.572;7.234;2023-04-06T10:08:27;22.60;46.10
24087;DHT22;22893;50.572;7.234;2023-04-06T10:10:56;22.60;46.10
24087;DHT22;22893;50.572;7.234;2023-04-06T10:13:25;22.60;46.20
24087;DHT22;22893;50.572;7.234;2023-04-06T10:15:52;22.60;46.10
24087;DHT22;22893;50.572;7.234;2023-04-06T10:18:21;22.60;46.20
24087;DHT22;22893;50.572;7.234;2023-04-06T10:20:53;22.60;46.20
24087;DHT22;22893;50.572;7.234;2023-04-06T10:25:58;22.60;46.20
24087;DHT22;22893;50.572;7.234;2023-04-06T10:28:36;22.60;46.30
24087;DHT22;22893;50.572;7.234;2023-04-06T10:31:05;22.60;46.30
24087;DHT22;22893;50.572;7.234;2023-04-06T10:33:33;22.60;46.40
24087;DHT22;22893;50.572;7.234;2023-04-06T10:36:15;22.70;46.40
24087;DHT22;22893;50.572;7.234;2023-04-06T10:38:43;22.70;46.40
24087;DHT22;22893;50.572;7.234;2023-04-06T10:41:12;22.70;46.40
24087;DHT22;22893;50.572;7.234;2023-04-06T10:43:41;22.70;46.50
24087;DHT22;22893;50.572;7.234;2023-04-06T10:46:09;22.70;46.50
24087;DHT22;22893;50.572;7.234;2023-04-06T10:48:39;22.70;46.50
24087;DHT22;22893;50.572;7.234;2023-04-06T10:51:14;22.70;46.60
24087;DHT22;22893;50.572;7.234;2023-04-06T10:53:44;22.70;46.60
24087;DHT22;22893;50.572;7.234;2023-04-06T10:56:15;22.70;46.60
24087;DHT22;22893;50.572;7.234;2023-04-06T10:58:54;22.70;46.60
24087;DHT22;22893;50.572;7.234;2023-04-06T11:01:25;22.70;46.60
24087;DHT22;22893;50.572;7.234;2023-04-06T11:03:55;22.70;46.60
24087;DHT22;22893;50.572;7.234;2023-04-06T11:06:27;22.70;46.60
24087;DHT22;22893;50.572;7.234;2023-04-06T11:08:56;22.70;46.60
24087;DHT22;22893;50.572;7.234;2023-04-06T11:11:25;22.70;46.50
24087;DHT22;22893;50.572;7.234;2023-04-06T11:14:00;22.70;46.60
24087;DHT22;22893;50.572;7.234;2023-04-06T11:16:33;22.70;46.60
24087;DHT22;22893;50.572;7.234;2023-04-06T11:19:02;22.70;46.60
24087;DHT22;22893;50.572;7.234;2023-04-06T11:21:41;22.80;46.60
24087;DHT22;22893;50.572;7.234;2023-04-06T11:24:12;22.80;46.80
24087;DHT22;22893;50.572;7.234;2023-04-06T11:26:56;22.80;46.80
24087;DHT22;22893;50.572;7.234;2023-04-06T11:29:27;22.80;46.70
24087;DHT22;22893;50.572;7.234;2023-04-06T11:31:59;22.80;46.80
24087;DHT22;22893;50.572;7.234;2023-04-06T11:34:29;22.80;46.80
24087;DHT22;22893;50.572;7.234;2023-04-06T11:36:59;22.80;46.80
24087;DHT22;22893;50.572;7.234;2023-04-06T11:39:29;22.80;46.80
24087;DHT22;22893;50.572;7.234;2023-04-06T11:42:01;22.80;46.80
24087;DHT22;22893;50.572;7.234;2023-04-06T11:44:34;22.80;46.80
24087;DHT22;22893;50.572;7.234;2023-04-06T11:47:03;22.80;46.50
24087;DHT22;22893;50.572;7.234;2023-04-06T11:49:33;22.80;46.80
24087;DHT22;22893;50.572;7.234;2023-04-06T11:52:01;22.80;46.70
24087;DHT22;22893;50.572;7.234;2023-04-06T11:54:38;22.80;46.80
24087;DHT22;22893;50.572;7.234;2023-04-06T11:57:03;22.80;46.80
24087;DHT22;22893;50.572;7.234;2023-04-06T11:59:32;22.80;46.80
24087;DHT22;22893;50.572;7.234;2023-04-06T12:02:04;22.80;46.80
24087;DHT22;22893;50.572;7.234;2023-04-06T12:04:29;22.80;46.80
24087;DHT22;22893;50.572;7.234;2023-04-06T12:06:57;22.80;46.90
24087;DHT22;22893;50.572;7.234;2023-04-06T12:09:25;22.80;46.90
24087;DHT22;22893;50.572;7.234;2023-04-06T12:11:53;22.80;46.90
24087;DHT22;22893;50.572;7.234;2023-04-06T12:14:20;22.90;47.00
24087;DHT22;22893;50.572;7.234;2023-04-06T12:16:48;22.80;46.90
24087;DHT22;22893;50.572;7.234;2023-04-06T12:19:16;22.90;47.00
24087;DHT22;22893;50.572;7.234;2023-04-06T12:21:43;22.90;46.80
24087;DHT22;22893;50.572;7.234;2023-04-06T12:24:11;22.90;46.90
24087;DHT22;22893;50.572;7.234;2023-04-06T12:26:39;22.90;46.80
24087;DHT22;22893;50.572;7.234;2023-04-06T12:29:07;22.90;47.50
24087;DHT22;22893;50.572;7.234;2023-04-06T12:31:36;22.90;46.70
24087;DHT22;22893;50.572;7.234;2023-04-06T12:34:05;22.90;46.40
24087;DHT22;22893;50.572;7.234;2023-04-06T12:36:33;22.90;46.40
24087;DHT22;22893;50.572;7.234;2023-04-06T12:39:01;22.90;46.30
24087;DHT22;22893;50.572;7.234;2023-04-06T12:41:29;22.90;46.30
24087;DHT22;22893;50.572;7.234;2023-04-06T12:43:57;22.90;46.40
24087;DHT22;22893;50.572;7.234;2023-04-06T12:46:26;22.90;46.40
24087;DHT22;22893;50.572;7.234;2023-04-06T12:48:54;22.90;46.40
24087;DHT22;22893;50.572;7.234;2023-04-06T12:51:23;22.90;46.50
24087;DHT22;22893;50.572;7.234;2023-04-06T12:53:51;22.90;46.50
24087;DHT22;22893;50.572;7.234;2023-04-06T12:56:19;22.90;46.60
24087;DHT22;22893;50.572;7.234;2023-04-06T12:58:50;22.90;46.70
24087;DHT22;22893;50.572;7.234;2023-04-06T13:01:17;22.90;46.70
24087;DHT22;22893;50.572;7.234;2023-04-06T13:03:45;22.90;46.70
24087;DHT22;22893;50.572;7.234;2023-04-06T13:06:13;22.90;46.70
24087;DHT22;22893;50.572;7.234;2023-04-06T13:08:42;22.90;46.70
24087;DHT22;22893;50.572;7.234;2023-04-06T13:11:10;22.90;46.70
24087;DHT22;22893;50.572;7.234;2023-04-06T13:13:38;22.90;46.70
24087;DHT22;22893;50.572;7.234;2023-04-06T13:16:08;22.90;46.70
24087;DHT22;22893;50.572;7.234;2023-04-06T13:18:36;22.90;46.70
24087;DHT22;22893;50.572;7.234;2023-04-06T13:21:05;22.90;46.70
24087;DHT22;22893;50.572;7.234;2023-04-06T13:23:33;22.90;46.70
24087;DHT22;22893;50.572;7.234;2023-04-06T13:26:03;22.90;46.70
24087;DHT22;22893;50.572;7.234;2023-04-06T13:28:33;22.90;46.70
24087;DHT22;22893;50.572;7.234;2023-04-06T13:31:01;22.90;46.70
24087;DHT22;22893;50.572;7.234;2023-04-06T13:33:30;22.90;46.70
24087;DHT22;22893;50.572;7.234;2023-04-06T13:35:58;22.90;46.80
24087;DHT22;22893;50.572;7.234;2023-04-06T13:38:26;22.90;46.70
24087;DHT22;22893;50.572;7.234;2023-04-06T13:40:54;22.90;46.20
24087;DHT22;22893;50.572;7.234;2023-04-06T13:43:21;22.90;46.80
24087;DHT22;22893;50.572;7.234;2023-04-06T13:45:51;22.90;46.70
24087;DHT22;22893;50.572;7.234;2023-04-06T13:48:20;22.90;46.80
24087;DHT22;22893;50.572;7.234;2023-04-06T13:50:48;22.90;46.80
24087;DHT22;22893;50.572;7.234;2023-04-06T13:53:16;22.90;46.80
24087;DHT22;22893;50.572;7.234;2023-04-06T13:55:44;22.90;46.70
24087;DHT22;22893;50.572;7.234;2023-04-06T13:58:12;23.00;46.80
24087;DHT22;22893;50.572;7.234;2023-04-06T14:00:40;22.90;46.80
24087;DHT22;22893;50.572;7.234;2023-04-06T14:03:08;22.90;46.80
24087;DHT22;22893;50.572;7.234;2023-04-06T14:05:36;23.00;46.80
24087;DHT22;22893;50.572;7.234;2023-04-06T14:08:03;23.00;46.80
24087;DHT22;22893;50.572;7.234;2023-04-06T14:10:31;23.00;46.80
24087;DHT22;22893;50.572;7.234;2023-04-06T14:13:00;22.90;46.80
24087;DHT22;22893;50.572;7.234;2023-04-06T14:15:28;22.90;46.90
24087;DHT22;22893;50.572;7.234;2023-04-06T14:17:56;22.90;46.80
24087;DHT22;22893;50.572;7.234;2023-04-06T14:20:24;22.90;46.80
24087;DHT22;22893;50.572;7.234;2023-04-06T14:22:51;22.90;46.80
24087;DHT22;22893;50.572;7.234;2023-04-06T14:25:20;23.00;46.90
24087;DHT22;22893;50.572;7.234;2023-04-06T14:27:48;22.90;46.90
24087;DHT22;22893;50.572;7.234;2023-04-06T14:30:16;22.90;46.80
24087;DHT22;22893;50.572;7.234;2023-04-06T14:32:43;22.90;46.80
24087;DHT22;22893;50.572;7.234;2023-04-06T14:35:11;22.90;46.90
24087;DHT22;22893;50.572;7.234;2023-04-06T14:37:38;22.90;46.80
24087;DHT22;22893;50.572;7.234;2023-04-06T14:40:07;22.90;46.80
24087;DHT22;22893;50.572;7.234;2023-04-06T14:42:36;23.00;46.80
24087;DHT22;22893;50.572;7.234;2023-04-06T14:45:04;22.90;46.70
24087;DHT22;22893;50.572;7.234;2023-04-06T14:47:32;23.00;46.70
24087;DHT22;22893;50.572;7.234;2023-04-06T14:49:59;22.90;46.60
24087;DHT22;22893;50.572;7.234;2023-04-06T14:52:27;22.90;46.70
24087;DHT22;22893;50.572;7.234;2023-04-06T14:54:55;22.90;46.60
24087;DHT22;22893;50.572;7.234;2023-04-06T14:57:22;22.90;46.70
24087;DHT22;22893;50.572;7.234;2023-04-06T14:59:52;22.90;46.60
24087;DHT22;22893;50.572;7.234;2023-04-06T15:02:20;22.90;47.20
24087;DHT22;22893;50.572;7.234;2023-04-06T15:04:48;22.90;46.40
24087;DHT22;22893;50.572;7.234;2023-04-06T15:07:16;22.90;46.40
24087;DHT22;22893;50.572;7.234;2023-04-06T15:09:43;22.90;46.20
24087;DHT22;22893;50.572;7.234;2023-04-06T15:12:11;22.90;46.10
24087;DHT22;22893;50.572;7.234;2023-04-06T15:14:38;22.90;46.10
24087;DHT22;22893;50.572;7.234;2023-04-06T15:17:06;22.90;46.00
24087;DHT22;22893;50.572;7.234;2023-04-06T15:19:34;22.90;46.10
24087;DHT22;22893;50.572;7.234;2023-04-06T15:22:01;22.90;46.10
24087;DHT22;22893;50.572;7.234;2023-04-06T15:24:29;22.90;46.10
24087;DHT22;22893;50.572;7.234;2023-04-06T15:26:56;22.90;46.10
24087;DHT22;22893;50.572;7.234;2023-04-06T15:29:24;22.90;46.10
24087;DHT22;22893;50.572;7.234;2023-04-06T15:31:52;22.90;46.10
24087;DHT22;22893;50.572;7.234;2023-04-06T15:34:20;22.90;46.20
24087;DHT22;22893;50.572;7.234;2023-04-06T15:36:47;22.90;46.20
24087;DHT22;22893;50.572;7.234;2023-04-06T15:39:15;22.90;46.20
24087;DHT22;22893;50.572;7.234;2023-04-06T15:41:42;22.90;46.50
24087;DHT22;22893;50.572;7.234;2023-04-06T15:44:10;22.90;46.80
24087;DHT22;22893;50.572;7.234;2023-04-06T15:46:37;22.90;47.10
24087;DHT22;22893;50.572;7.234;2023-04-06T15:49:05;22.90;47.20
24087;DHT22;22893;50.572;7.234;2023-04-06T15:51:32;22.90;47.40
24087;DHT22;22893;50.572;7.234;2023-04-06T15:54:00;22.90;47.40
24087;DHT22;22893;50.572;7.234;2023-04-06T15:56:28;22.90;47.60
24087;DHT22;22893;50.572;7.234;2023-04-06T15:59:15;22.90;48.50
24087;DHT22;22893;50.572;7.234;2023-04-06T16:01:42;22.90;48.70
24087;DHT22;22893;50.572;7.234;2023-04-06T16:04:11;22.90;48.70
24087;DHT22;22893;50.572;7.234;2023-04-06T16:06:40;22.90;48.50
24087;DHT22;22893;50.572;7.234;2023-04-06T16:09:07;22.90;48.50
24087;DHT22;22893;50.572;7.234;2023-04-06T16:11:35;22.90;48.50
24087;DHT22;22893;50.572;7.234;2023-04-06T16:14:02;22.90;48.50
24087;DHT22;22893;50.572;7.234;2023-04-06T16:16:30;22.90;48.50
24087;DHT22;22893;50.572;7.234;2023-04-06T16:18:58;23.00;48.40
24087;DHT22;22893;50.572;7.234;2023-04-06T16:21:26;23.00;48.50
24087;DHT22;22893;50.572;7.234;2023-04-06T16:23:54;23.00;48.50
24087;DHT22;22893;50.572;7.234;2023-04-06T16:26:21;22.90;48.50
24087;DHT22;22893;50.572;7.234;2023-04-06T16:28:49;23.00;48.50
24087;DHT22;22893;50.572;7.234;2023-04-06T16:31:19;22.90;48.40
24087;DHT22;22893;50.572;7.234;2023-04-06T16:33:48;22.90;48.40
24087;DHT22;22893;50.572;7.234;2023-04-06T16:36:24;22.90;48.40
24087;DHT22;22893;50.572;7.234;2023-04-06T16:38:55;22.90;48.50
24087;DHT22;22893;50.572;7.234;2023-04-06T16:41:24;22.90;48.50
24087;DHT22;22893;50.572;7.234;2023-04-06T16:43:52;23.00;48.60
24087;DHT22;22893;50.572;7.234;2023-04-06T16:46:21;22.90;48.60
24087;DHT22;22893;50.572;7.234;2023-04-06T16:48:49;22.90;48.70
24087;DHT22;22893;50.572;7.234;2023-04-06T16:51:16;22.90;48.70
24087;DHT22;22893;50.572;7.234;2023-04-06T16:53:44;22.90;48.70
24087;DHT22;22893;50.572;7.234;2023-04-06T16:56:13;22.90;48.70
24087;DHT22;22893;50.572;7.234;2023-04-06T16:58:40;23.00;48.80
24087;DHT22;22893;50.572;7.234;2023-04-06T17:01:10;22.90;48.70
24087;DHT22;22893;50.572;7.234;2023-04-06T17:03:37;22.90;48.80
24087;DHT22;22893;50.572;7.234;2023-04-06T17:06:04;22.90;48.80
24087;DHT22;22893;50.572;7.234;2023-04-06T17:08:32;22.90;48.80
24087;DHT22;22893;50.572;7.234;2023-04-06T17:11:00;22.90;48.80
24087;DHT22;22893;50.572;7.234;2023-04-06T17:13:27;22.90;49.40
24087;DHT22;22893;50.572;7.234;2023-04-06T17:15:55;22.90;48.80
24087;DHT22;22893;50.572;7.234;2023-04-06T17:18:23;22.90;48.80
24087;DHT22;22893;50.572;7.234;2023-04-06T17:20:50;22.90;48.90
24087;DHT22;22893;50.572;7.234;2023-04-06T17:23:18;22.90;48.90
24087;DHT22;22893;50.572;7.234;2023-04-06T17:25:46;22.90;48.90
24087;DHT22;22893;50.572;7.234;2023-04-06T17:28:14;22.90;49.00
24087;DHT22;22893;50.572;7.234;2023-04-06T17:30:41;22.90;49.00
24087;DHT22;22893;50.572;7.234;2023-04-06T17:33:09;22.90;49.00
24087;DHT22;22893;50.572;7.234;2023-04-06T17:35:38;22.90;49.00
24087;DHT22;22893;50.572;7.234;2023-04-06T17:38:06;22.90;49.00
24087;DHT22;22893;50.572;7.234;2023-04-06T17:40:34;22.90;49.00
24087;DHT22;22893;50.572;7.234;2023-04-06T17:43:03;22.90;49.00
24087;DHT22;22893;50.572;7.234;2023-04-06T17:45:31;22.90;49.10
24087;DHT22;22893;50.572;7.234;2023-04-06T17:47:59;22.90;49.00
24087;DHT22;22893;50.572;7.234;2023-04-06T17:50:26;22.90;49.00
24087;DHT22;22893;50.572;7.234;2023-04-06T17:52:54;22.90;49.00
24087;DHT22;22893;50.572;7.234;2023-04-06T17:55:21;22.90;48.90
24087;DHT22;22893;50.572;7.234;2023-04-06T17:57:49;22.90;49.00
24087;DHT22;22893;50.572;7.234;2023-04-06T18:00:17;22.90;49.00
24087;DHT22;22893;50.572;7.234;2023-04-06T18:02:46;22.90;49.00
24087;DHT22;22893;50.572;7.234;2023-04-06T18:05:14;22.90;49.00
24087;DHT22;22893;50.572;7.234;2023-04-06T18:07:41;22.90;49.10
24087;DHT22;22893;50.572;7.234;2023-04-06T18:10:10;22.90;49.20
24087;DHT22;22893;50.572;7.234;2023-04-06T18:12:37;22.90;49.20
24087;DHT22;22893;50.572;7.234;2023-04-06T18:15:06;22.90;49.20
24087;DHT22;22893;50.572;7.234;2023-04-06T18:17:34;22.90;49.30
24087;DHT22;22893;50.572;7.234;2023-04-06T18:20:02;22.90;49.60
24087;DHT22;22893;50.572;7.234;2023-04-06T18:22:33;22.90;49.30
24087;DHT22;22893;50.572;7.234;2023-04-06T18:25:03;22.90;49.30
24087;DHT22;22893;50.572;7.234;2023-04-06T18:27:31;22.90;49.30
24087;DHT22;22893;50.572;7.234;2023-04-06T18:29:59;22.90;49.40
24087;DHT22;22893;50.572;7.234;2023-04-06T18:32:26;22.90;49.30
24087;DHT22;22893;50.572;7.234;2023-04-06T18:34:56;22.90;49.40
24087;DHT22;22893;50.572;7.234;2023-04-06T18:37:24;22.90;49.40
24087;DHT22;22893;50.572;7.234;2023-04-06T18:39:52;22.90;49.30
24087;DHT22;22893;50.572;7.234;2023-04-06T18:42:20;22.90;49.30
24087;DHT22;22893;50.572;7.234;2023-04-06T18:44:47;22.90;49.40
24087;DHT22;22893;50.572;7.234;2023-04-06T18:47:15;22.90;49.60
24087;DHT22;22893;50.572;7.234;2023-04-06T18:49:42;22.90;49.60
24087;DHT22;22893;50.572;7.234;2023-04-06T18:52:10;22.90;49.70
24087;DHT22;22893;50.572;7.234;2023-04-06T18:54:37;22.90;49.70
24087;DHT22;22893;50.572;7.234;2023-04-06T18:57:05;22.90;50.00
24087;DHT22;22893;50.572;7.234;2023-04-06T18:59:32;22.90;50.00
24087;DHT22;22893;50.572;7.234;2023-04-06T19:02:00;22.90;50.00
24087;DHT22;22893;50.572;7.234;2023-04-06T19:04:28;22.90;49.90
24087;DHT22;22893;50.572;7.234;2023-04-06T19:06:56;22.90;50.00
24087;DHT22;22893;50.572;7.234;2023-04-06T19:09:25;22.90;49.90
24087;DHT22;22893;50.572;7.234;2023-04-06T19:11:53;22.90;50.10
24087;DHT22;22893;50.572;7.234;2023-04-06T19:14:22;22.90;50.00
24087;DHT22;22893;50.572;7.234;2023-04-06T19:16:50;22.90;50.00
24087;DHT22;22893;50.572;7.234;2023-04-06T19:19:18;22.90;50.10
24087;DHT22;22893;50.572;7.234;2023-04-06T19:21:46;22.90;50.00
24087;DHT22;22893;50.572;7.234;2023-04-06T19:24:14;22.90;50.00
24087;DHT22;22893;50.572;7.234;2023-04-06T19:26:41;22.90;50.30
24087;DHT22;22893;50.572;7.234;2023-04-06T19:29:09;22.90;50.50
24087;DHT22;22893;50.572;7.234;2023-04-06T19:31:37;22.90;50.60
24087;DHT22;22893;50.572;7.234;2023-04-06T19:34:06;22.90;50.90
24087;DHT22;22893;50.572;7.234;2023-04-06T19:36:33;22.90;50.60
24087;DHT22;22893;50.572;7.234;2023-04-06T19:39:01;22.90;50.60
24087;DHT22;22893;50.572;7.234;2023-04-06T19:41:29;22.90;50.60
24087;DHT22;22893;50.572;7.234;2023-04-06T19:43:56;22.90;50.60
24087;DHT22;22893;50.572;7.234;2023-04-06T19:46:24;22.90;50.80
24087;DHT22;22893;50.572;7.234;2023-04-06T19:48:51;22.90;50.90
24087;DHT22;22893;50.572;7.234;2023-04-06T19:51:19;22.90;50.90
24087;DHT22;22893;50.572;7.234;2023-04-06T19:53:46;22.90;50.60
24087;DHT22;22893;50.572;7.234;2023-04-06T19:56:14;22.90;50.60
24087;DHT22;22893;50.572;7.234;2023-04-06T19:58:42;22.90;50.60
24087;DHT22;22893;50.572;7.234;2023-04-06T20:01:09;22.90;50.60
24087;DHT22;22893;50.572;7.234;2023-04-06T20:03:37;22.90;51.40
24087;DHT22;22893;50.572;7.234;2023-04-06T20:06:04;22.90;51.10
24087;DHT22;22893;50.572;7.234;2023-04-06T20:08:32;22.90;50.70
24087;DHT22;22893;50.572;7.234;2023-04-06T20:11:05;22.90;50.60
24087;DHT22;22893;50.572;7.234;2023-04-06T20:13:34;22.90;50.80
24087;DHT22;22893;50.572;7.234;2023-04-06T20:16:02;22.90;50.70
24087;DHT22;22893;50.572;7.234;2023-04-06T20:18:32;22.90;50.60
24087;DHT22;22893;50.572;7.234;2023-04-06T20:21:00;22.90;50.60
24087;DHT22;22893;50.572;7.234;2023-04-06T20:23:27;22.90;51.00
24087;DHT22;22893;50.572;7.234;2023-04-06T20:25:55;22.90;50.50
24087;DHT22;22893;50.572;7.234;2023-04-06T20:28:23;22.90;50.30
24087;DHT22;22893;50.572;7.234;2023-04-06T20:30:51;22.90;50.40
24087;DHT22;22893;50.572;7.234;2023-04-06T20:33:19;22.90;50.40
24087;DHT22;22893;50.572;7.234;2023-04-06T20:36:00;22.90;50.40
24087;DHT22;22893;50.572;7.234;2023-04-06T20:38:24;22.90;50.20
24087;DHT22;22893;50.572;7.234;2023-04-06T20:40:52;22.90;50.30
24087;DHT22;22893;50.572;7.234;2023-04-06T20:43:19;22.90;50.30
24087;DHT22;22893;50.572;7.234;2023-04-06T20:45:48;22.90;50.20
24087;DHT22;22893;50.572;7.234;2023-04-06T20:48:16;22.90;50.20
24087;DHT22;22893;50.572;7.234;2023-04-06T20:50:44;22.90;50.20
24087;DHT22;22893;50.572;7.234;2023-04-06T20:53:11;22.90;50.20
24087;DHT22;22893;50.572;7.234;2023-04-06T20:55:40;22.90;50.20
24087;DHT22;22893;50.572;7.234;2023-04-06T20:58:08;22.90;50.20
24087;DHT22;22893;50.572;7.234;2023-04-06T21:00:36;22.90;50.20
24087;DHT22;22893;50.572;7.234;2023-04-06T21:03:04;22.90;50.10
24087;DHT22;22893;50.572;7.234;2023-04-06T21:05:32;22.90;50.20
24087;DHT22;22893;50.572;7.234;2023-04-06T21:07:59;22.90;50.20
24087;DHT22;22893;50.572;7.234;2023-04-06T21:10:27;22.90;50.00
24087;DHT22;22893;50.572;7.234;2023-04-06T21:12:55;22.90;50.10
24087;DHT22;22893;50.572;7.234;2023-04-06T21:15:22;22.90;50.00
24087;DHT22;22893;50.572;7.234;2023-04-06T21:17:51;22.90;50.00
24087;DHT22;22893;50.572;7.234;2023-04-06T21:20:38;22.90;50.10
24087;DHT22;22893;50.572;7.234;2023-04-06T21:23:06;22.90;49.80
24087;DHT22;22893;50.572;7.234;2023-04-06T21:25:35;22.90;50.20
24087;DHT22;22893;50.572;7.234;2023-04-06T21:28:03;22.90;50.10
24087;DHT22;22893;50.572;7.234;2023-04-06T21:30:31;22.90;50.10
24087;DHT22;22893;50.572;7.234;2023-04-06T21:33:00;22.80;50.00
24087;DHT22;22893;50.572;7.234;2023-04-06T21:35:27;22.90;50.10
24087;DHT22;22893;50.572;7.234;2023-04-06T21:37:55;22.80;50.10
24087;DHT22;22893;50.572;7.234;2023-04-06T21:40:23;22.80;50.10